Time;durP1;ratioP1;P1;durP2;ratioP2;P2;SDS_P1;SDS_P2;PMS_P1;PMS_P2;Temp;Humidity;BMP_temperature;BMP_pressure;BME280_temperature;BME280_humidity;BME280_pressure;Samples;Min_cycle;Max_cycle;Signal;HPM_P1;HPM_P2
2022/01/28 00:00:49;;;;;;;22.17;9.30;;;;;;;-2.13;87.49;101843.55;1880336;76;21097;-61
2022/01/28 00:03:13;;;;;;;24.52;9.83;;;;;;;-2.16;87.49;101839.57;1891655;76;21046;-59
2022/01/28 00:05:42;;;;;;;22.48;10.98;;;;;;;-2.14;87.46;101840.49;1892494;76;21020;-58
2022/01/28 00:08:11;;;;;;;21.68;9.58;;;;;;;-2.11;87.48;101843.17;1892281;76;21062;-59
2022/01/28 00:10:40;;;;;;;19.73;8.38;;;;;;;-2.11;87.29;101843.17;1892363;76;21124;-58
2022/01/28 00:13:19;;;;;;;22.58;9.50;;;;;;;-2.09;87.27;101842.80;1892439;76;21481;-58
2022/01/28 00:16:00;;;;;;;26.40;10.13;;;;;;;-2.07;87.26;101843.72;1891367;76;21116;-58
2022/01/28 00:36:28;;;;;;;18.42;8.10;;;;;;;-2.02;87.39;101835.72;1892421;76;21609;-58
2022/01/28 00:39:49;;;;;;;24.63;10.40;;;;;;;-1.82;87.65;101836.31;1852091;77;21055;-59
2022/01/28 00:42:19;;;;;;;21.48;10.08;;;;;;;-1.81;87.67;101830.33;1852032;77;21476;-59
2022/01/28 00:44:47;;;;;;;22.17;10.08;;;;;;;-1.80;87.70;101828.61;1851953;77;21509;-59
2022/01/28 00:47:16;;;;;;;23.27;10.38;;;;;;;-1.86;87.59;101823.25;1852035;77;21086;-59
2022/01/28 00:49:45;;;;;;;24.90;9.80;;;;;;;-1.93;87.44;101820.05;1851939;77;21066;-62
2022/01/28 00:52:14;;;;;;;24.50;10.20;;;;;;;-2.12;86.55;101824.67;1852229;77;21094;-61
2022/01/28 00:54:42;;;;;;;21.17;10.30;;;;;;;-2.24;87.01;101810.09;1852078;77;21132;-61
2022/01/28 00:57:11;;;;;;;32.58;12.30;;;;;;;-2.24;87.01;101810.09;1852015;77;21071;-61
2022/01/28 00:59:40;;;;;;;25.30;9.63;;;;;;;-2.26;86.45;101813.91;1851981;77;21063;-60
2022/01/28 01:02:08;;;;;;;21.90;8.60;;;;;;;-2.30;86.16;101812.50;1852224;77;21066;-60
2022/01/28 01:04:37;;;;;;;24.77;9.83;;;;;;;-2.35;85.69;101809.33;1851867;77;21181;-61
2022/01/28 01:07:06;;;;;;;26.93;10.45;;;;;;;-2.40;85.42;101808.34;1852032;77;21066;-59
2022/01/28 01:09:35;;;;;;;28.10;10.72;;;;;;;-2.51;85.85;101790.34;1852178;77;21054;-60
2022/01/28 01:12:04;;;;;;;24.50;10.90;;;;;;;-2.51;85.85;101790.34;1852042;77;21050;-60
2022/01/28 01:14:33;;;;;;;26.05;11.15;;;;;;;-2.47;85.82;101798.37;1851968;77;21100;-59
2022/01/28 01:17:14;;;;;;;21.40;8.58;;;;;;;-2.56;85.69;101798.37;1852022;77;21559;-61
2022/01/28 01:19:37;;;;;;;26.70;10.03;;;;;;;-2.61;85.33;101799.92;1849590;77;21050;-61
2022/01/28 01:22:02;;;;;;;21.82;8.43;;;;;;;-2.72;85.02;101806.87;1851390;77;21027;-61
2022/01/28 01:24:36;;;;;;;26.07;12.05;;;;;;;-2.82;84.95;101799.39;1851899;77;21046;-61
2022/01/28 01:27:01;;;;;;;21.48;9.38;;;;;;;-2.91;84.80;101799.39;1851389;77;21055;-60
2022/01/28 01:29:30;;;;;;;21.37;9.13;;;;;;;-3.10;84.65;101801.73;1851980;77;21066;-60
2022/01/28 01:32:04;;;;;;;27.67;11.05;;;;;;;-3.10;84.65;101801.73;1851980;77;21473;-60
2022/01/28 01:34:32;;;;;;;21.70;10.08;;;;;;;-3.18;85.17;101806.63;1855648;77;21537;-60
2022/01/28 01:37:00;;;;;;;24.35;11.03;;;;;;;-3.18;85.30;101831.53;1878225;76;21042;-60
2022/01/28 01:39:33;;;;;;;29.52;10.48;;;;;;;-3.27;85.44;101815.75;1890272;76;21112;-60
2022/01/28 01:42:08;;;;;;;26.00;11.90;;;;;;;-3.38;85.28;101801.20;1889909;75;21038;-60
2022/01/28 01:52:31;;;;;;;25.15;10.75;;;;;;;-3.55;85.34;101793.77;1890191;76;21030;-62
2022/01/28 01:55:00;;;;;;;27.80;11.10;;;;;;;-3.58;85.18;101809.75;1890275;76;21522;-60
2022/01/28 01:57:30;;;;;;;27.05;11.95;;;;;;;-3.63;85.32;101809.75;1890352;76;21059;-61
2022/01/28 01:59:59;;;;;;;30.82;10.75;;;;;;;-3.68;85.44;101812.17;1890413;76;21042;-61
2022/01/28 02:02:27;;;;;;;23.18;11.10;;;;;;;-3.73;85.51;101806.84;1890343;76;21094;-61
2022/01/28 02:04:56;;;;;;;31.05;10.88;;;;;;;-3.79;85.51;101810.91;1890339;76;21051;-60
2022/01/28 02:07:26;;;;;;;25.32;10.50;;;;;;;-3.84;85.55;101824.00;1890348;76;21133;-60
2022/01/28 02:09:54;;;;;;;21.90;9.05;;;;;;;-3.91;85.17;101813.50;1890294;75;21461;-60
2022/01/28 02:12:23;;;;;;;24.80;9.68;;;;;;;-3.89;85.37;101822.15;1890356;76;21051;-60
2022/01/28 02:14:52;;;;;;;24.82;10.08;;;;;;;-3.93;85.04;101828.00;1890317;76;21042;-60
2022/01/28 02:17:20;;;;;;;23.67;11.15;;;;;;;-4.08;84.61;101815.44;1890291;76;21023;-60
2022/01/28 02:19:49;;;;;;;25.57;9.63;;;;;;;-4.17;85.00;101805.19;1890180;76;21176;-60
2022/01/28 02:22:19;;;;;;;26.90;10.35;;;;;;;-4.17;85.00;101805.19;1890340;76;21101;-59
2022/01/28 02:24:48;;;;;;;31.12;11.60;;;;;;;-4.18;84.94;101819.75;1890295;76;21082;-59
2022/01/28 02:27:17;;;;;;;30.45;13.32;;;;;;;-4.21;84.84;101802.04;1890325;76;21153;-58
2022/01/28 02:29:46;;;;;;;34.83;13.30;;;;;;;-4.33;84.61;101802.04;1890274;76;21022;-60
2022/01/28 02:32:15;;;;;;;30.65;13.80;;;;;;;-4.30;84.72;101812.45;1890284;76;21034;-58
2022/01/28 02:34:44;;;;;;;25.82;12.65;;;;;;;-4.34;84.67;101816.98;1890372;75;21070;-58
2022/01/28 02:37:12;;;;;;;38.05;15.63;;;;;;;-4.38;84.46;101823.25;1867664;76;21043;-58
2022/01/28 02:39:41;;;;;;;44.60;18.15;;;;;;;-4.44;84.32;101818.74;1858220;77;21572;-58
2022/01/28 02:42:19;;;;;;;35.63;15.18;;;;;;;-4.49;84.18;101826.25;1858273;77;21108;-58
2022/01/28 02:44:48;;;;;;;28.50;12.18;;;;;;;-4.56;84.07;101820.40;1857666;77;21153;-59
2022/01/28 02:47:17;;;;;;;28.73;11.43;;;;;;;-4.61;83.97;101824.88;1857816;77;21039;-60
2022/01/28 02:49:45;;;;;;;20.68;7.78;;;;;;;-4.66;83.92;101828.16;1857939;77;21026;-60
2022/01/28 02:52:21;;;;;;;15.83;6.90;;;;;;;-4.69;83.80;101822.88;1858528;77;21134;-61
2022/01/28 02:54:46;;;;;;;31.37;10.85;;;;;;;-4.71;83.73;101824.52;1857542;77;21046;-61
2022/01/28 02:57:18;;;;;;;21.95;8.18;;;;;;;-4.79;83.57;101827.19;1858098;77;21129;-60
2022/01/28 02:59:44;;;;;;;29.95;10.90;;;;;;;-4.86;83.45;101832.89;1857929;77;21066;-59
2022/01/28 03:02:13;;;;;;;25.77;9.50;;;;;;;-4.96;83.31;101838.44;1858255;77;21156;-60
2022/01/28 03:07:22;;;;;;;16.85;7.08;;;;;;;-5.13;82.95;101845.44;1858280;77;21027;-60
2022/01/28 03:10:01;;;;;;;21.93;8.60;;;;;;;-5.15;82.92;101845.38;1857733;77;21055;-61
2022/01/28 03:12:22;;;;;;;16.17;7.58;;;;;;;-5.19;82.99;101840.92;1856507;77;21109;-59
2022/01/28 03:15:17;;;;;;;20.75;9.00;;;;;;;-5.30;83.15;101843.44;1857884;77;21184;-59
2022/01/28 03:22:49;;;;;;;28.62;11.18;;;;;;;-5.41;83.46;101848.52;1858234;77;21179;-60
2022/01/28 03:25:18;;;;;;;36.08;18.48;;;;;;;-5.47;83.25;101858.98;1858233;77;21099;-60
2022/01/28 03:27:52;;;;;;;55.60;24.00;;;;;;;-5.53;83.40;101847.17;1858265;77;21038;-60
2022/01/28 03:30:17;;;;;;;29.95;12.37;;;;;;;-5.54;83.45;101845.40;1857793;77;21094;-60
2022/01/28 03:32:46;;;;;;;20.75;7.97;;;;;;;-5.56;83.42;101847.02;1858179;77;21137;-59
2022/01/28 03:35:16;;;;;;;25.43;9.53;;;;;;;-5.61;83.43;101848.50;1859203;77;21599;-58
2022/01/28 03:37:45;;;;;;;20.45;9.08;;;;;;;-5.72;83.24;101848.01;1891414;76;21070;-60
2022/01/28 03:40:19;;;;;;;23.22;10.55;;;;;;;-5.78;83.21;101850.72;1893573;76;21038;-59
2022/01/28 03:42:44;;;;;;;31.73;10.95;;;;;;;-5.83;83.25;101855.62;1893030;76;21109;-59
2022/01/28 03:45:13;;;;;;;39.45;14.05;;;;;;;-5.85;83.16;101851.70;1893460;76;21018;-59
2022/01/28 03:47:42;;;;;;;40.73;17.50;;;;;;;-5.87;83.11;101848.61;1893512;76;21038;-59
2022/01/28 03:50:11;;;;;;;35.28;12.63;;;;;;;-5.90;82.96;101849.36;1893565;76;21132;-59
2022/01/28 03:52:39;;;;;;;31.77;11.28;;;;;;;-5.95;82.85;101843.14;1893586;76;21077;-59
2022/01/28 03:55:09;;;;;;;30.08;11.57;;;;;;;-6.02;82.83;101846.25;1893577;76;21116;-59
2022/01/28 03:57:38;;;;;;;19.27;7.55;;;;;;;-6.06;82.84;101852.06;1893579;76;21109;-60
2022/01/28 04:00:08;;;;;;;25.65;10.88;;;;;;;-6.13;82.87;101848.73;1893544;76;21046;-59
2022/01/28 04:02:40;;;;;;;22.65;8.65;;;;;;;-6.21;82.86;101850.52;1864310;76;21485;-59
2022/01/28 04:13:25;;;;;;;28.65;9.58;;;;;;;-6.50;82.84;101850.41;1893710;76;21034;-59
2022/01/28 04:16:16;;;;;;;25.40;9.68;;;;;;;-6.51;83.05;101854.18;1893383;76;21034;-62
2022/01/28 04:18:22;;;;;;;30.00;10.58;;;;;;;-6.52;83.19;101855.00;1888847;76;21042;-60
2022/01/28 04:20:51;;;;;;;25.25;10.10;;;;;;;-6.52;83.19;101857.56;1893477;76;21030;-61
2022/01/28 04:23:19;;;;;;;25.80;11.33;;;;;;;-6.52;83.10;101860.13;1893570;76;21047;-60
2022/01/28 04:25:48;;;;;;;33.98;10.93;;;;;;;-6.54;82.86;101866.86;1893509;76;21015;-60
2022/01/28 04:28:16;;;;;;;21.48;9.13;;;;;;;-6.56;82.61;101865.91;1893597;76;21141;-60
2022/01/28 04:30:45;;;;;;;23.10;10.38;;;;;;;-6.62;82.45;101867.37;1893569;76;21042;-60
2022/01/28 04:33:14;;;;;;;24.57;8.40;;;;;;;-6.69;82.23;101872.12;1893548;76;21039;-61
2022/01/28 04:35:45;;;;;;;33.45;11.88;;;;;;;-6.72;82.02;101883.08;1890105;75;21087;-59
2022/01/28 04:41:07;;;;;;;13.68;5.97;;;;;;;-6.92;82.00;101873.11;1858173;77;21148;-59
2022/01/28 04:43:33;;;;;;;21.87;9.58;;;;;;;-7.01;82.05;101872.27;1856493;77;21485;-60
2022/01/28 04:46:08;;;;;;;12.30;6.58;;;;;;;-7.09;81.94;101872.67;1857378;77;21189;-60
2022/01/28 04:48:34;;;;;;;10.10;6.35;;;;;;;-7.18;81.88;101875.63;1854529;77;21042;-60
2022/01/28 04:54:00;;;;;;;19.75;9.08;;;;;;;-7.29;82.00;101885.72;1858186;77;21070;-58
2022/01/28 04:56:32;;;;;;;22.98;8.38;;;;;;;-7.32;82.10;101884.27;1856506;77;21047;-58
2022/01/28 04:59:10;;;;;;;30.27;8.95;;;;;;;-7.38;82.02;101892.13;1856862;77;21145;-58
2022/01/28 05:01:50;;;;;;;17.52;6.42;;;;;;;-7.38;82.29;101887.02;1855986;77;21046;-60
2022/01/28 05:04:15;;;;;;;23.15;7.90;;;;;;;-7.36;82.44;101890.91;1855393;77;21058;-58
2022/01/28 05:23:20;;;;;;;23.52;8.10;;;;;;;-7.39;82.63;101883.09;1858282;77;21136;-57
2022/01/28 05:26:01;;;;;;;23.55;9.53;;;;;;;-7.51;82.41;101880.75;1858338;77;21034;-58
2022/01/28 05:28:22;;;;;;;22.80;7.60;;;;;;;-7.51;82.56;101878.19;1856319;77;21128;-57
2022/01/28 05:30:48;;;;;;;23.45;9.05;;;;;;;-7.50;82.57;101879.97;1857964;77;21046;-57
2022/01/28 05:33:16;;;;;;;25.62;9.58;;;;;;;-7.49;82.77;101877.00;1858310;77;21108;-58
2022/01/28 05:35:45;;;;;;;17.42;7.00;;;;;;;-7.20;84.29;101878.52;1861607;76;21113;-59
2022/01/28 05:38:14;;;;;;;18.35;8.08;;;;;;;-6.83;85.08;101871.42;1893452;76;21160;-59
2022/01/28 05:40:43;;;;;;;18.67;8.20;;;;;;;-6.29;85.71;101869.81;1893611;76;21133;-58
2022/01/28 05:43:12;;;;;;;20.45;9.35;;;;;;;-5.78;85.32;101865.70;1893632;76;21077;-58
2022/01/28 05:45:40;;;;;;;31.70;10.32;;;;;;;-5.28;84.46;101868.36;1893610;76;21524;-57
2022/01/28 05:48:09;;;;;;;15.78;7.50;;;;;;;-4.73;84.53;101862.12;1893445;76;21108;-57
2022/01/28 05:50:37;;;;;;;12.90;5.12;;;;;;;-4.23;83.44;101865.41;1893611;76;21120;-58
2022/01/28 05:53:06;;;;;;;35.98;12.40;;;;;;;-3.74;83.16;101864.30;1893664;76;21046;-60
2022/01/28 05:55:35;;;;;;;37.73;15.25;;;;;;;-3.14;83.47;101868.16;1893626;76;21128;-59
2022/01/28 05:58:04;;;;;;;26.48;11.20;;;;;;;-2.31;84.78;101861.91;1893661;76;21038;-59
2022/01/28 06:00:33;;;;;;;42.43;16.02;;;;;;;-1.48;85.81;101864.81;1893473;76;21046;-60
2022/01/28 06:03:01;;;;;;;32.25;12.63;;;;;;;-0.76;86.34;101862.00;1893762;76;21112;-60
2022/01/28 06:05:30;;;;;;;36.60;15.20;;;;;;;-0.13;86.61;101860.53;1893729;76;21034;-60
2022/01/28 06:08:00;;;;;;;64.87;21.30;;;;;;;0.33;87.05;101857.66;1893658;76;21066;-58
2022/01/28 06:10:29;;;;;;;29.98;11.43;;;;;;;0.72;87.43;101851.52;1893585;76;21465;-59
2022/01/28 06:12:58;;;;;;;20.95;10.82;;;;;;;1.25;87.44;101848.56;1893554;76;21058;-60
2022/01/28 06:15:26;;;;;;;19.95;9.20;;;;;;;1.64;87.40;101843.17;1893584;76;21051;-60
2022/01/28 06:17:55;;;;;;;27.90;11.57;;;;;;;1.96;87.18;101845.80;1893667;76;21113;-60
2022/01/28 06:20:24;;;;;;;32.80;14.70;;;;;;;2.28;86.78;101848.38;1893554;76;21055;-60
2022/01/28 06:22:53;;;;;;;31.50;13.32;;;;;;;2.61;85.67;101844.89;1893607;76;21046;-61
2022/01/28 06:25:22;;;;;;;30.55;11.18;;;;;;;2.75;85.10;101853.72;1893614;76;21094;-59
2022/01/28 06:27:50;;;;;;;33.15;13.00;;;;;;;3.08;84.74;101850.59;1893786;76;21203;-58
2022/01/28 06:30:20;;;;;;;32.95;13.95;;;;;;;3.45;83.78;101850.92;1893631;76;21031;-59
2022/01/28 06:32:49;;;;;;;29.55;12.90;;;;;;;3.83;82.57;101850.75;1893664;76;21050;-59
2022/01/28 06:35:18;;;;;;;33.60;13.13;;;;;;;4.15;82.28;101852.27;1893577;76;21050;-60
2022/01/28 06:37:47;;;;;;;24.55;12.00;;;;;;;4.37;81.43;101848.44;1858906;76;21086;-59
2022/01/28 06:40:17;;;;;;;32.63;13.35;;;;;;;4.40;81.21;101844.55;1851799;77;21631;-58
2022/01/28 06:42:47;;;;;;;27.10;12.73;;;;;;;4.59;80.70;101845.08;1852089;77;21063;-57
2022/01/28 06:45:16;;;;;;;31.60;10.28;;;;;;;4.96;79.50;101843.86;1851921;77;21148;-59
2022/01/28 06:47:45;;;;;;;30.70;12.65;;;;;;;5.44;78.38;101848.23;1852060;77;21117;-58
2022/01/28 06:50:13;;;;;;;31.05;10.98;;;;;;;5.83;77.07;101842.55;1851909;77;21062;-58
2022/01/28 06:52:42;;;;;;;24.63;10.68;;;;;;;6.11;75.97;101836.42;1851882;77;21070;-59
2022/01/28 06:55:14;;;;;;;26.90;11.12;;;;;;;6.33;75.44;101842.90;1851945;77;21493;-59
2022/01/28 06:57:43;;;;;;;32.20;12.68;;;;;;;7.06;74.31;101834.20;1851920;77;21097;-59
2022/01/28 07:00:13;;;;;;;23.20;10.23;;;;;;;7.36;73.80;101830.50;1851900;77;21361;-59
2022/01/28 07:02:42;;;;;;;25.60;10.90;;;;;;;6.62;75.33;101837.95;1852011;77;21087;-59
2022/01/28 07:05:11;;;;;;;30.48;11.78;;;;;;;5.70;76.85;101828.20;1851839;77;21176;-60
2022/01/28 07:07:40;;;;;;;32.65;10.88;;;;;;;5.01;77.55;101826.45;1851879;77;21050;-59
2022/01/28 07:10:09;;;;;;;41.23;12.73;;;;;;;4.52;78.77;101826.76;1851921;77;21145;-60
2022/01/28 07:12:38;;;;;;;21.52;9.35;;;;;;;4.22;79.87;101827.97;1852110;77;21074;-60
2022/01/28 07:15:08;;;;;;;18.42;9.00;;;;;;;4.01;81.02;101827.41;1852065;77;21477;-60
2022/01/28 07:17:37;;;;;;;23.55;9.20;;;;;;;4.34;81.04;101818.02;1851968;77;21133;-60
2022/01/28 07:20:07;;;;;;;22.90;8.58;;;;;;;4.02;82.03;101825.67;1851923;77;21047;-60
2022/01/28 07:22:36;;;;;;;23.70;9.98;;;;;;;3.48;82.11;101822.28;1852065;77;21023;-60
2022/01/28 07:25:06;;;;;;;75.62;24.82;;;;;;;2.90;82.86;101824.40;1851977;77;21051;-60
2022/01/28 07:27:34;;;;;;;44.65;12.43;;;;;;;2.45;83.47;101827.82;1852001;77;21105;-59
2022/01/28 07:30:05;;;;;;;50.10;15.85;;;;;;;2.04;84.51;101820.34;1851819;77;21026;-61
2022/01/28 07:32:33;;;;;;;44.45;10.45;;;;;;;1.72;85.21;101822.07;1852010;77;21198;-60
2022/01/28 07:35:02;;;;;;;50.78;11.40;;;;;;;1.39;84.95;101819.83;1851864;77;21070;-60
2022/01/28 07:37:31;;;;;;;43.85;9.75;;;;;;;1.19;85.38;101819.50;1878820;76;21493;-60
2022/01/28 07:40:02;;;;;;;50.03;13.50;;;;;;;0.87;86.51;101817.66;1893547;76;21077;-60
2022/01/28 07:42:35;;;;;;;38.25;11.45;;;;;;;0.66;87.52;101826.75;1893654;76;21051;-60
2022/01/28 07:45:04;;;;;;;;;;;;;;;0.55;87.92;101816.20;1896560;76;21047;-60
2022/01/28 07:47:33;;;;;;;22.02;8.00;;;;;;;0.37;88.42;101816.70;1893591;76;20163;-60
2022/01/28 07:50:01;;;;;;;18.62;8.45;;;;;;;0.25;88.53;101824.22;1893519;76;21539;-60
2022/01/28 07:52:30;;;;;;;23.15;9.33;;;;;;;0.18;88.94;101827.52;1893604;76;21018;-58
2022/01/28 07:54:59;;;;;;;21.27;8.43;;;;;;;0.25;88.84;101829.83;1893751;76;21128;-61
2022/01/28 07:57:27;;;;;;;23.10;9.13;;;;;;;0.38;88.90;101831.39;1893533;76;21121;-60
2022/01/28 07:59:56;;;;;;;21.37;9.65;;;;;;;0.50;89.24;101826.00;1893571;76;21054;-59
2022/01/28 08:02:26;;;;;;;33.08;11.30;;;;;;;0.55;89.23;101820.49;1893540;76;21062;-57
2022/01/28 08:04:56;;;;;;;49.45;9.73;;;;;;;0.62;89.02;101810.70;1893659;76;21070;-58
2022/01/28 08:07:24;;;;;;;52.60;11.60;;;;;;;0.59;88.91;101804.18;1893514;76;21542;-59
2022/01/28 08:09:54;;;;;;;81.65;24.00;;;;;;;0.68;89.10;101813.42;1893422;76;21046;-57
2022/01/28 08:12:22;;;;;;;49.27;17.17;;;;;;;0.83;89.66;101805.45;1886917;76;21166;-59
2022/01/28 08:14:51;;;;;;;28.32;10.60;;;;;;;0.98;90.09;101803.16;1882515;76;21142;-59
2022/01/28 08:17:20;;;;;;;23.45;8.75;;;;;;;1.19;90.45;101803.07;1882447;76;21162;-59
2022/01/28 08:19:49;;;;;;;22.37;8.65;;;;;;;1.34;90.88;101816.28;1871689;76;21493;-58
2022/01/28 08:22:18;;;;;;;17.20;7.35;;;;;;;1.51;90.81;101807.46;1861695;77;21465;-58
2022/01/28 08:24:46;;;;;;;25.37;8.48;;;;;;;1.67;90.75;101803.38;1861862;77;21140;-59
2022/01/28 08:27:15;;;;;;;18.07;7.72;;;;;;;1.69;90.03;101806.44;1861778;77;21077;-58
2022/01/28 08:29:44;;;;;;;33.05;10.35;;;;;;;1.69;90.26;101806.87;1864539;76;21140;-59
2022/01/28 08:32:12;;;;;;;28.60;11.10;;;;;;;1.70;89.96;101811.23;1861799;77;21117;-56
2022/01/28 08:34:41;;;;;;;28.20;9.58;;;;;;;1.73;90.02;101811.25;1861845;77;21026;-60
2022/01/28 08:37:10;;;;;;;20.45;9.10;;;;;;;1.83;89.89;101807.95;1870927;76;21560;-58
2022/01/28 08:39:40;;;;;;;21.15;7.55;;;;;;;1.92;90.15;101789.89;1891151;76;21164;-58
2022/01/28 08:42:09;;;;;;;19.52;8.53;;;;;;;1.91;89.94;101795.92;1890256;76;21019;-57
2022/01/28 08:44:38;;;;;;;13.72;5.50;;;;;;;1.91;89.85;101789.87;1890217;76;21042;-58
2022/01/28 08:47:06;;;;;;;13.10;6.10;;;;;;;1.92;90.28;101780.80;1887880;76;21234;-58
2022/01/28 08:49:36;;;;;;;12.35;6.00;;;;;;;2.07;90.81;101784.46;1890070;76;21103;-58
2022/01/28 08:52:06;;;;;;;15.83;6.15;;;;;;;2.30;91.19;101776.93;1887873;76;21156;-58
2022/01/28 08:54:34;;;;;;;17.45;6.90;;;;;;;2.58;91.45;101775.50;1872086;76;21023;-58
2022/01/28 08:57:04;;;;;;;12.70;5.80;;;;;;;2.84;91.89;101772.28;1890161;75;21082;-58
2022/01/28 08:59:32;;;;;;;11.53;4.92;;;;;;;2.87;91.59;101762.78;1864350;76;21015;-60
2022/01/28 09:02:01;;;;;;;20.12;5.90;;;;;;;3.01;92.36;101756.42;1858091;77;21047;-58
2022/01/28 09:04:29;;;;;;;10.50;4.95;;;;;;;3.49;92.43;101765.89;1859055;76;21143;-61
2022/01/28 09:06:58;;;;;;;6.35;3.30;;;;;;;3.88;92.05;101762.21;1879589;76;21125;-60
2022/01/28 09:09:28;;;;;;;10.78;4.40;;;;;;;4.14;91.63;101759.27;1890181;76;21051;-60
2022/01/28 09:12:19;;;;;;;14.33;4.95;;;;;;;4.34;91.48;101759.34;1882430;76;21208;-60
2022/01/28 09:14:36;;;;;;;10.63;4.65;;;;;;;4.61;91.16;101750.73;1888188;75;21122;-60
2022/01/28 09:17:05;;;;;;;10.03;4.72;;;;;;;4.76;90.59;101751.63;1890064;75;21047;-59
2022/01/28 09:19:34;;;;;;;17.67;5.87;;;;;;;4.88;91.07;101746.84;1890182;76;21481;-61
2022/01/28 09:22:03;;;;;;;91.72;15.98;;;;;;;4.99;91.29;101744.66;1890351;75;21110;-60
2022/01/28 09:24:32;;;;;;;15.13;6.28;;;;;;;5.14;91.32;101740.31;1885734;74;21105;-63
2022/01/28 09:27:02;;;;;;;12.93;5.25;;;;;;;5.28;91.15;101740.31;1874147;74;21058;-64
2022/01/28 09:29:30;;;;;;;20.12;9.15;;;;;;;5.32;90.66;101732.91;1858957;76;21121;-64
2022/01/28 09:32:00;;;;;;;21.00;4.58;;;;;;;5.18;89.99;101728.98;1858163;77;21058;-63
2022/01/28 09:34:29;;;;;;;15.38;4.15;;;;;;;5.13;90.98;101720.31;1858039;77;21148;-64
2022/01/28 09:36:58;;;;;;;13.03;3.20;;;;;;;5.00;91.53;101716.39;1858164;77;21136;-62
2022/01/28 09:39:29;;;;;;;101.02;27.40;;;;;;;4.89;91.02;101716.83;1857926;77;21098;-61
2022/01/28 09:42:03;;;;;;;27.32;8.63;;;;;;;4.78;90.62;101714.22;1858128;77;21082;-63
2022/01/28 09:44:33;;;;;;;18.82;4.95;;;;;;;4.88;91.57;101708.55;1860516;76;21121;-63
2022/01/28 09:47:02;;;;;;;20.77;5.05;;;;;;;4.95;91.91;101700.30;1870443;76;21043;-65
2022/01/28 09:49:33;;;;;;;20.82;4.70;;;;;;;5.06;92.00;101699.00;1889964;76;21101;-65
2022/01/28 09:52:01;;;;;;;11.08;3.65;;;;;;;5.05;91.06;101695.49;1874131;76;21227;-64
2022/01/28 09:54:31;;;;;;;13.93;3.67;;;;;;;5.13;91.68;101694.20;1869240;76;21083;-67
2022/01/28 09:57:01;;;;;;;8.40;3.20;;;;;;;5.06;91.58;101683.33;1865299;76;21490;-64
2022/01/28 09:59:29;;;;;;;23.98;5.10;;;;;;;4.96;90.41;101679.42;1886375;76;21143;-62
2022/01/28 10:01:58;;;;;;;17.30;2.90;;;;;;;5.12;90.79;101673.73;1872112;76;21062;-61
2022/01/28 10:04:27;;;;;;;15.88;3.70;;;;;;;5.56;89.18;101680.59;1884681;76;21500;-63
2022/01/28 10:06:56;;;;;;;7.45;3.45;;;;;;;5.92;89.22;101672.61;1868279;76;21141;-63
2022/01/28 10:09:25;;;;;;;8.08;3.50;;;;;;;5.92;88.49;101671.30;1864639;76;21599;-63
2022/01/28 10:11:57;;;;;;;7.03;2.70;;;;;;;5.87;89.22;101676.56;1874870;75;21051;-64
2022/01/28 10:14:26;;;;;;;8.28;3.47;;;;;;;5.69;88.80;101674.89;1887715;76;21055;-62
2022/01/28 10:17:03;;;;;;;6.37;3.12;;;;;;;5.55;88.29;101664.92;1890014;75;21113;-63
2022/01/28 10:19:40;;;;;;;7.25;3.37;;;;;;;5.47;88.09;101664.09;1888830;76;21022;-60
2022/01/28 10:22:20;;;;;;;7.20;2.98;;;;;;;5.48;89.12;101660.17;1890173;76;21144;-62
2022/01/28 10:24:49;;;;;;;6.05;2.67;;;;;;;5.43;89.91;101661.06;1890286;76;21039;-62
2022/01/28 10:27:19;;;;;;;5.80;2.85;;;;;;;5.30;89.83;101653.70;1890067;76;21071;-63
2022/01/28 10:29:48;;;;;;;8.30;3.22;;;;;;;5.25;89.70;101641.94;1890189;76;21079;-63
2022/01/28 10:32:18;;;;;;;4.97;2.52;;;;;;;5.09;89.20;101644.15;1890294;76;21046;-63
2022/01/28 10:34:49;;;;;;;5.10;2.60;;;;;;;4.80;80.13;101638.55;1890218;76;21112;-62
2022/01/28 10:37:25;;;;;;;5.97;2.60;;;;;;;4.80;86.51;101635.50;1890288;76;21023;-67
2022/01/28 10:40:03;;;;;;;10.63;4.85;;;;;;;4.72;85.28;101632.04;1889214;75;21341;-64
2022/01/28 10:42:43;;;;;;;17.25;5.65;;;;;;;4.73;86.29;101628.54;1883508;76;21051;-59
2022/01/28 10:45:14;;;;;;;5.05;2.62;;;;;;;4.70;85.34;101621.15;1883662;76;21118;-58
2022/01/28 10:47:46;;;;;;;6.97;3.30;;;;;;;4.76;86.29;101629.85;1883739;76;21038;-58
2022/01/28 10:50:23;;;;;;;9.85;4.20;;;;;;;4.81;87.20;101633.34;1878675;76;21282;-62
2022/01/28 10:53:13;;;;;;;5.97;2.83;;;;;;;4.84;84.96;101628.53;1873413;75;21078;-60
2022/01/28 10:55:44;;;;;;;6.97;2.30;;;;;;;4.83;85.85;101630.28;1869650;76;21038;-63
2022/01/28 10:58:16;;;;;;;5.97;3.00;;;;;;;4.81;86.23;101623.31;1850810;77;21090;-63
2022/01/28 11:00:47;;;;;;;4.40;2.77;;;;;;;4.73;84.76;101618.11;1853245;76;21085;-63
2022/01/28 11:03:17;;;;;;;6.62;2.80;;;;;;;4.77;86.36;101605.92;1855937;76;21678;-61
2022/01/28 11:05:46;;;;;;;4.90;2.35;;;;;;;4.87;85.47;101623.33;1872500;76;21532;-61
2022/01/28 11:08:16;;;;;;;6.47;2.67;;;;;;;4.94;85.46;101623.75;1883607;76;21121;-61
2022/01/28 11:10:45;;;;;;;4.42;2.58;;;;;;;5.01;86.30;101616.31;1883612;76;21161;-62
2022/01/28 11:13:13;;;;;;;7.00;2.52;;;;;;;5.02;85.48;101618.07;1855893;76;21022;-65
2022/01/28 11:15:42;;;;;;;3.98;2.30;;;;;;;4.96;85.94;101607.66;1852210;77;21474;-60
2022/01/28 11:18:12;;;;;;;4.37;2.22;;;;;;;5.14;86.37;101601.94;1865473;76;21525;-61
2022/01/28 11:20:43;;;;;;;5.37;2.30;;;;;;;5.34;86.17;101589.69;1869007;76;21054;-62
2022/01/28 11:23:33;;;;;;;2.92;1.70;;;;;;;5.40;86.36;101597.52;1876350;76;21470;-61
2022/01/28 11:26:13;;;;;;;4.87;2.30;;;;;;;5.30;86.13;101593.19;1883765;76;21563;-61
2022/01/28 11:28:45;;;;;;;4.60;2.45;;;;;;;5.59;85.66;101592.21;1875828;76;21055;-61
2022/01/28 11:31:15;;;;;;;6.15;2.27;;;;;;;6.76;84.39;101590.95;1883528;76;21137;-62
2022/01/28 11:33:49;;;;;;;4.12;1.45;;;;;;;7.10;82.88;101593.66;1877965;76;21457;-58
2022/01/28 11:36:18;;;;;;;;;;;;;;;7.64;79.18;101584.72;1886318;76;21047;-60
2022/01/28 11:38:47;;;;;;;5.17;1.82;;;;;;;7.30;80.95;101577.30;1867496;76;20206;-59
2022/01/28 11:41:18;;;;;;;3.95;1.92;;;;;;;7.17;84.32;101576.99;1871611;76;21532;-59
2022/01/28 11:43:52;;;;;;;4.05;1.80;;;;;;;6.97;84.71;101574.59;1860134;76;21481;-62
2022/01/28 11:46:26;;;;;;;5.37;1.98;;;;;;;6.69;85.20;101587.09;1890147;76;21067;-62
2022/01/28 11:49:05;;;;;;;3.95;2.05;;;;;;;6.81;85.42;101577.83;1890135;76;21106;-61
2022/01/28 11:51:38;;;;;;;2.92;1.67;;;;;;;7.10;84.39;101579.25;1890138;76;21075;-59
2022/01/28 11:54:36;;;;;;;6.30;1.82;;;;;;;6.91;85.04;101589.06;1912763;75;21156;-60
2022/01/28 11:57:13;;;;;;;2.45;1.40;;;;;;;6.49;85.32;101573.77;1912798;75;21021;-61
2022/01/28 11:59:42;;;;;;;2.40;1.27;;;;;;;6.14;84.88;101580.16;1912557;75;21092;-59
2022/01/28 12:02:14;;;;;;;1.92;1.10;;;;;;;6.01;84.92;101579.78;1912559;75;21126;-59
2022/01/28 12:04:44;;;;;;;3.70;1.10;;;;;;;6.01;78.52;101582.40;1912545;75;21076;-59
2022/01/28 12:07:17;;;;;;;2.40;1.60;;;;;;;6.81;82.92;101572.59;1912594;75;21102;-59
2022/01/28 12:09:48;;;;;;;1.57;0.90;;;;;;;7.20;82.67;101583.52;1912738;75;21068;-59
2022/01/28 12:12:47;;;;;;;1.57;1.07;;;;;;;7.08;82.50;101576.67;1912223;75;21045;-59
2022/01/28 12:15:18;;;;;;;1.42;1.10;;;;;;;6.79;83.42;101570.85;1926217;74;21040;-59
2022/01/28 12:17:47;;;;;;;2.80;1.00;;;;;;;6.80;81.21;101572.16;1927496;74;21048;-60
2022/01/28 12:20:21;;;;;;;5.12;1.35;;;;;;;7.06;82.88;101564.47;1893685;76;21110;-59
2022/01/28 12:23:07;;;;;;;1.42;0.90;;;;;;;7.43;80.67;101577.13;1893890;76;21009;-59
2022/01/28 12:25:45;;;;;;;1.92;1.12;;;;;;;7.11;82.68;101567.91;1879748;75;21130;-59
2022/01/28 12:28:20;;;;;;;1.57;1.20;;;;;;;6.51;80.08;101576.34;1893768;75;21114;-59
2022/01/28 12:31:07;;;;;;;5.42;1.32;;;;;;;6.27;82.17;101573.50;1893691;75;21072;-59
2022/01/28 12:33:38;;;;;;;2.33;1.30;;;;;;;5.88;81.40;101567.64;1893648;75;21036;-59
2022/01/28 12:36:18;;;;;;;3.02;1.52;;;;;;;5.36;75.62;101572.70;1893747;76;21577;-59
2022/01/28 12:39:00;;;;;;;3.15;1.50;;;;;;;5.02;76.75;101558.03;1893680;76;21012;-59
2022/01/28 12:41:26;;;;;;;1.52;1.17;;;;;;;4.85;78.56;101557.22;1893308;75;21013;-59